Time;durP1;ratioP1;P1;durP2;ratioP2;P2;SDS_P1;SDS_P2;PMS_P1;PMS_P2;Temp;Humidity;BMP_temperature;BMP_pressure;BME280_temperature;BME280_humidity;BME280_pressure;Samples;Min_cycle;Max_cycle;Signal;HPM_P1;HPM_P2
2024/04/15 05:00:36;;;;;;;;;;;;;;;16.13;64.12;99657.89;1885289;75;20446;-73
2024/04/15 05:03:03;;;;;;;;;;;;;;;16.27;63.49;99650.98;1837560;76;20493;-71
2024/04/15 05:05:34;;;;;;;;;;;;;;;16.45;61.94;99651.66;1831890;77;20250;-72
2024/04/15 05:08:01;;;;;;;;;;;;;;;16.61;61.53;99652.00;1816239;77;20154;-74
2024/04/15 05:10:28;;;;;;;;;;;;;;;16.85;60.46;99645.09;1837658;77;20125;-70
2024/04/15 05:12:54;;;;;;;;;;;;;;;17.08;60.36;99645.22;1831786;76;20176;-69
2024/04/15 05:15:21;;;;;;;;;;;;;;;17.31;59.53;99644.45;1832110;76;20106;-69
2024/04/15 05:17:47;;;;;;;;;;;;;;;17.52;58.58;99645.64;1802459;78;20141;-67
2024/04/15 05:20:27;;;;;;;;;;;;;;;17.67;57.44;99641.61;1835283;77;20156;-72
2024/04/15 05:23:04;;;;;;;;;;;;;;;17.77;56.60;99643.75;1799317;78;20422;-67
2024/04/15 05:25:30;;;;;;;;;;;;;;;17.91;56.67;99644.63;1833171;78;20096;-68
2024/04/15 05:27:59;;;;;;;;;;;;;;;18.07;56.47;99644.50;1838830;76;20149;-72
2024/04/15 05:30:26;;;;;;;;;;;;;;;18.16;55.75;99633.11;1843954;77;20288;-72
2024/04/15 05:36:05;;;;;;;;;;;;;;;18.44;55.59;99633.47;1735196;82;20313;-69
2024/04/15 05:38:31;;;;;;;;;;;;;;;18.58;53.98;99633.48;1794857;77;20136;-68
2024/04/15 05:40:58;;;;;;;;;;;;;;;18.63;53.25;99641.33;1833957;77;20406;-69
2024/04/15 05:43:25;;;;;;;;;;;;;;;18.74;53.63;99641.63;1844362;77;20131;-70
2024/04/15 05:45:52;;;;;;;;;;;;;;;18.89;52.86;99638.80;1836289;77;20094;-69
2024/04/15 05:48:50;;;;;;;;;;;;;;;;;;;;;
2024/04/15 05:51:35;;;;;;;;;;;;;;;19.21;51.03;99651.48;1811511;78;20108;-68
2024/04/15 05:54:02;;;;;;;;;;;;;;;19.32;50.16;99649.95;1833161;78;20419;-68
2024/04/15 05:56:28;;;;;;;;;;;;;;;19.35;49.77;99652.78;1833369;78;20105;-68
2024/04/15 05:58:55;;;;;;;;;;;;;;;19.39;49.53;99651.50;1830018;77;20155;-74
2024/04/15 06:01:21;;;;;;;;;;;;;;;19.44;50.02;99651.88;1821044;77;20121;-71
2024/04/15 06:03:49;;;;;;;;;;;;;;;19.52;50.52;99656.44;1824356;77;20559;-72
2024/04/15 06:06:16;;;;;;;;;;;;;;;19.62;50.30;99656.66;1831906;77;20401;-68
2024/04/15 06:09:08;;;;;;;;;;;;;;;19.73;49.66;99648.99;1841200;77;20150;-73
2024/04/15 06:11:35;;;;;;;;;;;;;;;19.85;49.10;99646.94;1814622;77;20209;-70
2024/04/15 06:14:02;;;;;;;;;;;;;;;19.98;45.18;99634.16;1821735;77;20125;-72
2024/04/15 06:16:29;;;;;;;;;;;;;;;20.02;42.15;99624.89;1823316;77;20113;-70
2024/04/15 06:18:57;;;;;;;;;;;;;;;20.04;41.75;99626.06;1824951;77;20108;-70
2024/04/15 06:21:23;;;;;;;;;;;;;;;19.93;41.16;99616.11;1820120;77;20117;-71
2024/04/15 06:23:49;;;;;;;;;;;;;;;19.74;40.87;99607.55;1789559;79;20136;-70
2024/04/15 06:26:16;;;;;;;;;;;;;;;19.47;40.67;99607.17;1788880;79;20110;-69
2024/04/15 06:28:43;;;;;;;;;;;;;;;19.28;40.52;99594.47;1785181;79;20480;-70
2024/04/15 06:31:11;;;;;;;;;;;;;;;19.20;40.73;99586.47;1788858;79;20104;-71
2024/04/15 06:33:37;;;;;;;;;;;;;;;19.10;41.23;99591.03;1765767;79;20132;-72
2024/04/15 06:36:04;;;;;;;;;;;;;;;18.99;40.40;99590.76;1788522;79;20157;-73
2024/04/15 06:38:31;;;;;;;;;;;;;;;18.86;40.25;99590.78;1781135;80;20205;-68
2024/04/15 06:40:59;;;;;;;;;;;;;;;18.71;39.47;99584.38;1782907;79;20121;-72
2024/04/15 06:43:27;;;;;;;;;;;;;;;18.60;39.97;99584.09;1787109;79;20096;-72
2024/04/15 06:45:53;;;;;;;;;;;;;;;18.55;40.86;99576.59;1782875;79;20374;-70
2024/04/15 06:48:20;;;;;;;;;;;;;;;18.59;41.65;99581.08;1782111;79;20104;-69
2024/04/15 06:50:47;;;;;;;;;;;;;;;18.68;40.95;99582.03;1784945;79;20104;-70
2024/04/15 06:53:14;;;;;;;;;;;;;;;18.76;40.89;99575.05;1781959;79;20135;-73
2024/04/15 06:55:40;;;;;;;;;;;;;;;18.85;42.43;99564.06;1781033;79;20434;-73
2024/04/15 06:58:08;;;;;;;;;;;;;;;18.98;42.85;99569.80;1784182;79;20157;-70
2024/04/15 07:00:35;;;;;;;;;;;;;;;19.07;42.16;99563.62;1782130;79;20422;-68
2024/04/15 07:03:01;;;;;;;;;;;;;;;19.11;42.25;99566.79;1788406;79;20092;-68
2024/04/15 07:05:27;;;;;;;;;;;;;;;19.04;41.73;99567.05;1786250;79;20116;-70
2024/04/15 07:07:55;;;;;;;;;;;;;;;18.87;40.14;99562.09;1795387;79;20258;-70
2024/04/15 07:10:21;;;;;;;;;;;;;;;18.68;41.38;99566.21;1783190;79;20108;-69
2024/04/15 07:12:50;;;;;;;;;;;;;;;18.56;41.96;99571.66;1782395;79;20152;-68
2024/04/15 07:15:16;;;;;;;;;;;;;;;18.50;41.43;99555.59;1782195;80;20109;-71
2024/04/15 07:17:43;;;;;;;;;;;;;;;18.33;41.48;99557.23;1755875;80;20105;-71
2024/04/15 07:20:12;;;;;;;;;;;;;;;18.19;42.16;99553.77;1792670;79;20163;-68
2024/04/15 07:22:38;;;;;;;;;;;;;;;18.01;41.98;99553.69;1784981;79;20122;-68
2024/04/15 07:25:05;;;;;;;;;;;;;;;17.85;42.72;99552.18;1782570;79;20152;-69
2024/04/15 07:27:35;;;;;;;;;;;;;;;17.78;43.53;99551.09;1791370;79;20136;-70
2024/04/15 07:30:02;;;;;;;;;;;;;;;17.74;42.95;99551.03;1784164;79;20162;-71
2024/04/15 07:32:29;;;;;;;;;;;;;;;17.70;42.76;99552.29;1786458;79;20128;-71
2024/04/15 07:34:55;;;;;;;;;;;;;;;17.71;43.14;99553.95;1744958;79;20124;-70
2024/04/15 07:37:22;;;;;;;;;;;;;;;17.74;43.08;99553.17;1790817;79;20116;-69
2024/04/15 07:39:49;;;;;;;;;;;;;;;17.80;43.52;99546.02;1795461;79;20135;-72
2024/04/15 07:42:15;;;;;;;;;;;;;;;17.85;43.32;99541.16;1782683;79;20168;-69
2024/04/15 07:44:42;;;;;;;;;;;;;;;17.84;43.06;99542.62;1799066;79;20366;-69
2024/04/15 07:47:10;;;;;;;;;;;;;;;17.83;43.24;99534.38;1791815;79;20217;-71
2024/04/15 07:49:37;;;;;;;;;;;;;;;17.82;43.47;99533.55;1787860;79;20128;-68
2024/04/15 07:52:06;;;;;;;;;;;;;;;17.77;43.15;99531.00;1782999;79;20172;-70
2024/04/15 07:54:33;;;;;;;;;;;;;;;17.66;42.73;99534.14;1799354;79;20137;-72
2024/04/15 07:57:03;;;;;;;;;;;;;;;17.47;43.05;99530.23;1786539;79;20123;-71
2024/04/15 07:59:29;;;;;;;;;;;;;;;17.29;43.50;99524.02;1784872;79;20160;-72
2024/04/15 08:01:56;;;;;;;;;;;;;;;17.21;44.18;99525.20;1790222;79;20394;-70
2024/04/15 08:04:22;;;;;;;;;;;;;;;17.17;44.30;99524.69;1790952;79;20162;-70
2024/04/15 08:06:49;;;;;;;;;;;;;;;17.23;44.60;99526.73;1792818;79;20170;-74
2024/04/15 08:09:16;;;;;;;;;;;;;;;17.35;44.93;99520.83;1799326;79;20124;-73
2024/04/15 08:11:42;;;;;;;;;;;;;;;17.47;44.90;99512.29;1796896;79;20102;-71
2024/04/15 08:14:11;;;;;;;;;;;;;;;17.55;44.63;99504.03;1794957;79;20129;-72
2024/04/15 08:16:37;;;;;;;;;;;;;;;17.52;43.40;99500.36;1794394;79;20110;-68
2024/04/15 08:19:04;;;;;;;;;;;;;;;17.44;44.29;99483.13;1794576;79;20144;-71
2024/04/15 08:21:30;;;;;;;;;;;;;;;17.34;44.44;99485.78;1799263;79;20102;-77
2024/04/15 08:23:57;;;;;;;;;;;;;;;17.27;45.26;99482.55;1792115;79;20092;-70
2024/04/15 08:26:24;;;;;;;;;;;;;;;17.22;45.75;99487.40;1791987;79;20398;-70
2024/04/15 08:28:50;;;;;;;;;;;;;;;17.17;46.04;99485.22;1795109;79;20128;-70
2024/04/15 08:31:17;;;;;;;;;;;;;;;17.14;46.00;99493.39;1793705;79;20144;-72
2024/04/15 08:33:44;;;;;;;;;;;;;;;17.08;45.74;99494.44;1794990;79;20104;-73
2024/04/15 08:36:12;;;;;;;;;;;;;;;16.98;45.74;99490.50;1790360;79;20443;-70
2024/04/15 08:38:44;;;;;;;;;;;;;;;16.90;46.04;99499.08;1793776;79;20159;-72
2024/04/15 08:41:07;;;;;;;;;;;;;;;16.83;46.67;99497.97;1797196;79;20110;-72
2024/04/15 08:43:37;;;;;;;;;;;;;;;16.82;46.82;99484.95;1789954;79;20465;-76
2024/04/15 08:46:04;;;;;;;;;;;;;;;16.86;46.22;99485.03;1791988;79;20159;-72
2024/04/15 08:48:32;;;;;;;;;;;;;;;16.92;46.03;99481.84;1796257;79;20154;-70
2024/04/15 08:50:59;;;;;;;;;;;;;;;17.01;46.39;99481.01;1733895;82;20130;-71
2024/04/15 08:53:28;;;;;;;;;;;;;;;17.13;47.07;99488.27;1775560;80;20107;-70
2024/04/15 08:55:55;;;;;;;;;;;;;;;17.24;46.95;99506.50;1779905;79;20094;-69
2024/04/15 08:58:21;;;;;;;;;;;;;;;17.32;46.57;99507.47;1773550;80;20098;-73
2024/04/15 09:00:47;;;;;;;;;;;;;;;17.33;46.02;99515.70;1759077;80;20393;-71
2024/04/15 09:03:14;;;;;;;;;;;;;;;17.34;46.20;99513.42;1752476;80;20405;-71
2024/04/15 09:05:40;;;;;;;;;;;;;;;17.34;46.14;99504.20;1752697;80;20190;-68
2024/04/15 09:08:07;;;;;;;;;;;;;;;17.32;46.45;99504.84;1754213;80;20107;-71
2024/04/15 09:10:34;;;;;;;;;;;;;;;17.29;46.98;99508.23;1752811;80;20178;-71
2024/04/15 09:13:01;;;;;;;;;;;;;;;17.25;46.81;99514.75;1754305;80;20189;-70
2024/04/15 09:15:28;;;;;;;;;;;;;;;17.20;46.83;99505.13;1752803;80;20150;-71
2024/04/15 09:17:55;;;;;;;;;;;;;;;17.13;46.26;99505.37;1730517;80;20166;-69
2024/04/15 09:20:21;;;;;;;;;;;;;;;17.10;46.29;99508.28;1751406;80;20125;-69
2024/04/15 09:22:48;;;;;;;;;;;;;;;17.12;46.89;99511.12;1759485;80;20130;-70
2024/04/15 09:25:14;;;;;;;;;;;;;;;17.20;47.27;99516.97;1730704;82;20380;-70
2024/04/15 09:27:41;;;;;;;;;;;;;;;17.26;48.06;99506.71;1730794;82;20323;-70
2024/04/15 09:30:08;;;;;;;;;;;;;;;17.34;47.83;99487.59;1758777;80;20160;-70
2024/04/15 09:32:35;;;;;;;;;;;;;;;17.45;47.89;99482.65;1755174;80;20410;-68
2024/04/15 09:35:04;;;;;;;;;;;;;;;17.55;47.29;99477.70;1756987;80;20149;-70
2024/04/15 09:37:38;;;;;;;;;;;;;;;17.64;47.67;99466.28;1755679;81;20115;-71
2024/04/15 09:40:03;;;;;;;;;;;;;;;17.70;46.81;99453.06;1752891;80;20143;-71
2024/04/15 09:42:30;;;;;;;;;;;;;;;17.71;46.36;99449.45;1752643;81;20131;-70
2024/04/15 09:44:57;;;;;;;;;;;;;;;17.67;44.76;99449.40;1752367;81;20106;-71
2024/04/15 09:47:26;;;;;;;;;;;;;;;17.59;45.10;99450.60;1752857;80;20115;-71
2024/04/15 09:49:52;;;;;;;;;;;;;;;17.53;44.93;99444.59;1762526;80;20120;-72
2024/04/15 09:52:22;;;;;;;;;;;;;;;17.50;45.05;99443.08;1775302;80;20107;-70
2024/04/15 09:54:53;;;;;;;;;;;;;;;17.49;45.16;99439.27;1752573;80;20392;-70
2024/04/15 09:57:21;;;;;;;;;;;;;;;17.53;45.50;99438.02;1731364;81;20215;-70
2024/04/15 09:59:54;;;;;;;;;;;;;;;17.61;45.12;99435.46;1754645;80;20263;-68
2024/04/15 10:02:35;;;;;;;;;;;;;;;17.70;45.23;99428.05;1757255;80;20147;-69
2024/04/15 10:05:04;;;;;;;;;;;;;;;17.81;45.07;99430.48;1776190;80;20108;-71
2024/04/15 10:07:32;;;;;;;;;;;;;;;17.90;45.29;99417.77;1759727;80;20107;-72
2024/04/15 10:10:00;;;;;;;;;;;;;;;17.97;45.50;99424.59;1760119;80;20156;-71
2024/04/15 10:12:27;;;;;;;;;;;;;;;18.01;44.98;99433.83;1751534;80;20250;-70
2024/04/15 10:14:53;;;;;;;;;;;;;;;18.04;44.76;99430.89;1781012;80;20378;-71
2024/04/15 10:17:19;;;;;;;;;;;;;;;18.06;44.94;99416.26;1757548;80;20108;-69
2024/04/15 10:19:48;;;;;;;;;;;;;;;18.05;44.80;99426.45;1752734;80;20095;-74
2024/04/15 10:22:17;;;;;;;;;;;;;;;18.02;45.46;99420.16;1755141;80;20961;-72
2024/04/15 10:24:43;;;;;;;;;;;;;;;17.99;45.57;99413.41;1762014;80;20089;-72
2024/04/15 10:27:10;;;;;;;;;;;;;;;17.97;45.60;99425.42;1760556;80;20132;-71
2024/04/15 10:29:40;;;;;;;;;;;;;;;17.93;46.22;99433.27;1752604;82;20126;-73
2024/04/15 10:32:07;;;;;;;;;;;;;;;17.88;46.47;99424.15;1730101;81;20146;-71
2024/04/15 10:34:44;;;;;;;;;;;;;;;17.77;45.90;99413.31;1730295;81;20279;-71
2024/04/15 10:37:14;;;;;;;;;;;;;;;17.68;46.31;99423.89;1751819;80;20463;-71
2024/04/15 10:39:47;;;;;;;;;;;;;;;17.63;46.16;99430.39;1752328;80;20161;-71
2024/04/15 10:42:13;;;;;;;;;;;;;;;17.61;46.58;99413.91;1734264;82;20130;-72
2024/04/15 10:44:57;;;;;;;;;;;;;;;17.61;45.61;99406.02;1733976;80;20161;-70
2024/04/15 10:47:24;;;;;;;;;;;;;;;17.58;44.87;99406.82;1761358;80;20461;-74
2024/04/15 10:49:50;;;;;;;;;;;;;;;17.57;45.35;99392.00;1731432;80;20122;-69
2024/04/15 10:52:19;;;;;;;;;;;;;;;17.54;44.57;99383.91;1764545;80;20386;-73
2024/04/15 10:54:45;;;;;;;;;;;;;;;17.52;44.93;99405.59;1756690;80;20132;-71
2024/04/15 10:57:11;;;;;;;;;;;;;;;17.49;44.72;99405.05;1753360;80;20134;-74
2024/04/15 10:59:40;;;;;;;;;;;;;;;17.39;44.46;99411.67;1758351;80;20171;-71
2024/04/15 11:02:10;;;;;;;;;;;;;;;17.24;43.59;99415.24;1725898;82;20115;-72
2024/04/15 11:04:46;;;;;;;;;;;;;;;17.04;43.93;99414.14;1729020;82;20174;-75
2024/04/15 11:07:17;;;;;;;;;;;;;;;16.90;44.06;99418.03;1707565;82;20173;-69
2024/04/15 11:09:44;;;;;;;;;;;;;;;16.80;43.99;99406.21;1731535;82;20150;-69
2024/04/15 11:12:17;;;;;;;;;;;;;;;16.71;44.12;99405.77;1732585;81;20133;-73
2024/04/15 11:14:43;;;;;;;;;;;;;;;16.59;43.77;99404.22;1733051;82;20190;-71
2024/04/15 11:17:10;;;;;;;;;;;;;;;16.47;44.25;99395.64;1727757;82;20138;-69
2024/04/15 11:19:40;;;;;;;;;;;;;;;16.35;44.43;99382.32;1729893;82;21128;-71
2024/04/15 11:22:09;;;;;;;;;;;;;;;16.26;45.09;99377.41;1729027;82;20179;-69
2024/04/15 11:24:36;;;;;;;;;;;;;;;16.22;45.36;99364.68;1738523;81;20515;-68
2024/04/15 11:27:07;;;;;;;;;;;;;;;16.23;45.74;99372.42;1732133;82;20135;-70
2024/04/15 11:29:40;;;;;;;;;;;;;;;16.26;46.02;99368.20;1731699;82;20221;-72
2024/04/15 11:32:25;;;;;;;;;;;;;;;16.30;46.28;99377.48;1731311;82;20173;-74
2024/04/15 11:35:10;;;;;;;;;;;;;;;16.38;47.12;99389.09;1731419;81;20162;-73
2024/04/15 11:40:51;;;;;;;;;;;;;;;16.58;47.23;99399.93;1730768;82;20132;-78
2024/04/15 11:43:57;;;;;;;;;;;;;;;;;;;;;
2024/04/15 11:46:27;;;;;;;;;;;;;;;16.84;46.72;99327.39;1665100;85;20172;-70
2024/04/15 11:48:55;;;;;;;;;;;;;;;16.94;46.18;99326.05;1734897;82;20483;-70
2024/04/15 11:51:21;;;;;;;;;;;;;;;17.00;46.76;99336.00;1710653;82;20231;-69
2024/04/15 11:53:47;;;;;;;;;;;;;;;17.03;45.81;99348.88;1699561;83;20391;-70
2024/04/15 11:56:14;;;;;;;;;;;;;;;16.97;43.32;99335.80;1728155;82;20103;-73
2024/04/15 11:58:40;;;;;;;;;;;;;;;16.88;42.14;99339.77;1728177;82;20121;-70
2024/04/15 12:01:07;;;;;;;;;;;;;;;16.78;42.08;99321.91;1737308;80;20127;-73
2024/04/15 12:03:33;;;;;;;;;;;;;;;16.75;41.97;99327.45;1752552;81;20097;-74
2024/04/15 12:06:01;;;;;;;;;;;;;;;16.73;41.28;99317.55;1752706;80;20146;-71
2024/04/15 12:08:28;;;;;;;;;;;;;;;16.72;41.67;99335.61;1727678;82;20150;-71
2024/04/15 12:10:54;;;;;;;;;;;;;;;16.72;41.41;99339.08;1752621;80;20101;-70
2024/04/15 12:13:21;;;;;;;;;;;;;;;16.71;41.20;99353.19;1736142;82;20367;-71
2024/04/15 12:15:47;;;;;;;;;;;;;;;16.70;41.22;99374.36;1762954;80;20101;-71
2024/04/15 12:18:20;;;;;;;;;;;;;;;16.71;41.22;99379.48;1773668;80;20096;-71
2024/04/15 12:20:46;;;;;;;;;;;;;;;16.68;40.57;99371.88;1758076;80;20114;-71
2024/04/15 12:23:14;;;;;;;;;;;;;;;16.63;39.57;99378.83;1765336;80;20104;-72
2024/04/15 12:25:40;;;;;;;;;;;;;;;16.55;39.40;99393.63;1780890;80;20108;-70
2024/04/15 12:28:41;;;;;;;;;;;;;;;16.46;38.74;99385.27;1752344;80;20193;-72
2024/04/15 12:31:05;;;;;;;;;;;;;;;16.35;38.59;99388.89;1751628;81;20091;-70
2024/04/15 12:33:31;;;;;;;;;;;;;;;16.14;39.30;99396.88;1752981;80;20396;-70
2024/04/15 12:35:57;;;;;;;;;;;;;;;15.95;39.47;99389.83;1770671;80;20222;-71
2024/04/15 12:38:24;;;;;;;;;;;;;;;15.77;39.78;99393.23;1753005;80;20097;-71
2024/04/15 12:40:51;;;;;;;;;;;;;;;15.60;39.96;99385.51;1752099;80;20111;-69
2024/04/15 12:43:53;;;;;;;;;;;;;;;;;;;;;
2024/04/15 12:50:00;;;;;;;;;;;;;;;15.19;40.76;99381.21;1680377;83;20192;-76
2024/04/15 12:53:35;;;;;;;;;;;;;;;15.08;42.67;99398.33;1606865;88;20478;-73
2024/04/15 12:56:05;;;;;;;;;;;;;;;14.99;44.54;99394.69;1606124;85;20310;-72
2024/04/15 12:58:33;;;;;;;;;;;;;;;14.92;45.24;99368.64;1764546;80;20094;-73
2024/04/15 13:00:59;;;;;;;;;;;;;;;14.88;45.63;99370.69;1765969;80;20399;-70
2024/04/15 13:03:26;;;;;;;;;;;;;;;14.86;45.93;99359.98;1765413;80;20165;-72
2024/04/15 13:05:54;;;;;;;;;;;;;;;14.81;46.28;99348.56;1765933;80;20130;-71
2024/04/15 13:08:21;;;;;;;;;;;;;;;14.77;46.34;99344.58;1775297;80;20107;-70
2024/04/15 13:10:47;;;;;;;;;;;;;;;14.75;46.20;99336.01;1766378;80;20086;-72
2024/04/15 13:13:15;;;;;;;;;;;;;;;14.74;46.57;99332.20;1767346;80;20110;-68
2024/04/15 13:15:44;;;;;;;;;;;;;;;14.68;46.47;99326.52;1769687;80;20100;-73
2024/04/15 13:18:17;;;;;;;;;;;;;;;14.65;46.51;99322.84;1762762;80;20126;-71
2024/04/15 13:20:55;;;;;;;;;;;;;;;14.61;47.03;99327.16;1766018;80;20138;-72
2024/04/15 13:23:37;;;;;;;;;;;;;;;14.60;47.28;99335.50;1738394;79;20164;-75
2024/04/15 13:26:06;;;;;;;;;;;;;;;14.55;47.92;99323.73;1779375;81;20113;-71
2024/04/15 13:28:32;;;;;;;;;;;;;;;14.45;48.20;99318.43;1782729;79;20106;-71
2024/04/15 13:31:03;;;;;;;;;;;;;;;14.40;48.36;99322.36;1784562;80;20142;-72
2024/04/15 13:33:30;;;;;;;;;;;;;;;14.32;48.95;99319.92;1782494;79;20423;-69
2024/04/15 13:35:56;;;;;;;;;;;;;;;14.21;50.25;99316.52;1780633;79;20222;-71
2024/04/15 13:38:23;;;;;;;;;;;;;;;14.09;51.49;99317.04;1776691;80;20135;-71
2024/04/15 13:40:50;;;;;;;;;;;;;;;13.99;52.12;99339.72;1777332;79;20105;-70
2024/04/15 13:43:16;;;;;;;;;;;;;;;13.90;52.81;99336.53;1777322;80;20116;-71
2024/04/15 13:45:42;;;;;;;;;;;;;;;13.77;53.54;99335.37;1780573;79;20390;-71
2024/04/15 13:48:10;;;;;;;;;;;;;;;13.66;54.31;99330.98;1777702;79;20155;-71
2024/04/15 13:50:37;;;;;;;;;;;;;;;13.63;55.07;99335.16;1784656;79;20194;-71
2024/04/15 13:53:03;;;;;;;;;;;;;;;13.60;55.82;99326.72;1784484;79;20462;-71
2024/04/15 13:55:30;;;;;;;;;;;;;;;13.57;56.55;99307.37;1783635;79;20102;-71
2024/04/15 13:57:57;;;;;;;;;;;;;;;13.54;56.83;99308.92;1788624;79;20121;-71
2024/04/15 14:00:24;;;;;;;;;;;;;;;13.49;57.03;99296.20;1777742;79;20132;-71
